Time;durP1;ratioP1;P1;durP2;ratioP2;P2;SDS_P1;SDS_P2;PMS_P1;PMS_P2;Temp;Humidity;BMP_temperature;BMP_pressure;BME280_temperature;BME280_humidity;BME280_pressure;Samples;Min_cycle;Max_cycle;Signal;HPM_P1;HPM_P2
2022/04/19 00:04:11;;;;;;;7.60;4.40;;;;;;;7.02;49.33;99430.37;7679618;32;151496;-72
2022/04/19 00:08:27;;;;;;;6.90;4.97;;;;;;;7.63;47.27;99427.34;7684171;32;40665;-73
2022/04/19 00:12:43;;;;;;;9.73;5.00;;;;;;;7.67;46.54;99418.41;7684197;32;37659;-74
2022/04/19 00:16:59;;;;;;;8.70;5.10;;;;;;;7.23;47.35;99412.44;7683924;32;37097;-74
2022/04/19 00:21:16;;;;;;;7.32;4.78;;;;;;;7.30;47.45;99410.31;7684274;32;39481;-73
2022/04/19 00:25:32;;;;;;;8.50;5.10;;;;;;;7.17;47.60;99410.75;7683767;32;41231;-73
2022/04/19 00:29:49;;;;;;;7.28;4.53;;;;;;;6.91;48.25;99405.91;7683612;32;37822;-74
2022/04/19 00:34:05;;;;;;;9.10;5.43;;;;;;;6.86;48.31;99399.63;7683923;32;37992;-73
2022/04/19 00:38:22;;;;;;;8.88;5.05;;;;;;;6.84;48.55;99401.78;7683674;32;39395;-73
2022/04/19 00:42:38;;;;;;;9.15;5.28;;;;;;;6.87;48.38;99396.66;7683621;32;40810;-72
2022/04/19 00:46:54;;;;;;;8.50;5.30;;;;;;;6.90;48.52;99396.16;7683010;32;38720;-73
2022/04/19 00:51:11;;;;;;;9.57;5.75;;;;;;;6.99;48.97;99391.06;7683467;32;37285;-72
2022/04/19 00:55:28;;;;;;;9.57;5.45;;;;;;;6.37;51.75;99393.16;7681808;32;40121;-72
2022/04/19 00:59:46;;;;;;;9.30;5.45;;;;;;;6.75;50.76;99391.41;7683267;32;40730;-72
2022/04/19 01:04:02;;;;;;;8.02;5.22;;;;;;;6.73;50.72;99392.75;7683099;32;36925;-72
2022/04/19 01:08:18;;;;;;;8.35;5.05;;;;;;;6.54;51.46;99384.16;7682651;32;37147;-72
2022/04/19 01:17:09;;;;;;;8.80;5.35;;;;;;;6.67;50.66;99366.66;7682845;32;40833;-73
2022/04/19 01:21:50;;;;;;;8.43;5.53;;;;;;;6.80;50.35;99381.69;7681531;32;37779;-73
2022/04/19 01:26:07;;;;;;;7.03;4.80;;;;;;;7.24;49.06;99370.66;7682543;32;37049;-72
2022/04/19 01:30:23;;;;;;;8.40;5.12;;;;;;;6.66;50.80;99375.87;7682443;32;40163;-73
2022/04/19 01:34:39;;;;;;;11.23;5.93;;;;;;;6.65;50.79;99375.03;7678433;32;40003;-72
2022/04/19 01:38:55;;;;;;;8.93;5.53;;;;;;;6.48;51.33;99364.31;7680834;32;37731;-73
2022/04/19 01:43:12;;;;;;;7.62;4.80;;;;;;;6.72;50.37;99367.53;7684716;32;37016;-73
2022/04/19 01:47:29;;;;;;;9.13;5.18;;;;;;;6.66;50.37;99376.69;7685778;32;40095;-72
2022/04/19 01:51:45;;;;;;;11.20;5.10;;;;;;;7.02;49.32;99373.47;7685986;32;39994;-73
2022/04/19 01:56:01;;;;;;;8.93;5.03;;;;;;;7.09;49.21;99369.47;7685820;32;38931;-73
2022/04/19 02:00:17;;;;;;;8.35;4.75;;;;;;;7.26;48.91;99368.50;7685928;32;37124;-73
2022/04/19 02:04:33;;;;;;;7.87;5.07;;;;;;;7.09;49.53;99369.47;7685588;32;39993;-72
2022/04/19 02:08:49;;;;;;;8.40;5.40;;;;;;;7.28;49.50;99371.78;7684135;32;40737;-72
2022/04/19 02:13:06;;;;;;;9.07;5.55;;;;;;;7.30;49.35;99365.03;7685519;32;38472;-72
2022/04/19 02:17:23;;;;;;;9.18;5.32;;;;;;;6.98;50.20;99365.03;7685235;32;37468;-73
2022/04/19 02:21:39;;;;;;;8.02;5.30;;;;;;;6.87;50.92;99369.56;7685652;32;40022;-74
2022/04/19 02:25:55;;;;;;;11.15;5.50;;;;;;;6.91;50.55;99359.03;7685590;32;39846;-73
2022/04/19 02:30:14;;;;;;;8.57;5.40;;;;;;;7.09;49.45;99353.22;7685445;32;37807;-73
2022/04/19 02:34:30;;;;;;;8.93;5.72;;;;;;;6.92;50.18;99358.75;7685520;32;37850;-73
2022/04/19 02:38:46;;;;;;;9.68;5.82;;;;;;;6.86;50.82;99351.66;7658983;32;40293;-73
2022/04/19 02:43:03;;;;;;;11.23;5.55;;;;;;;6.98;50.65;99351.47;7659723;32;39886;-73
2022/04/19 02:47:19;;;;;;;11.38;6.40;;;;;;;6.98;50.55;99351.47;7684776;32;37519;-73
2022/04/19 02:51:35;;;;;;;9.63;5.68;;;;;;;6.84;50.93;99344.87;7685117;32;36789;-73
2022/04/19 02:55:51;;;;;;;11.35;5.70;;;;;;;6.78;51.20;99346.72;7685185;32;40131;-73
2022/04/19 03:00:08;;;;;;;9.02;5.68;;;;;;;6.77;50.91;99340.47;7683879;32;40190;-73
2022/04/19 03:04:24;;;;;;;9.75;5.12;;;;;;;6.84;50.70;99339.47;7684719;32;37811;-73
2022/04/19 03:08:40;;;;;;;8.90;5.30;;;;;;;7.01;50.54;99340.13;7684973;32;35615;-73
2022/04/19 03:12:56;;;;;;;10.85;6.07;;;;;;;6.96;50.28;99331.97;7684932;32;39384;-72
2022/04/19 03:17:12;;;;;;;10.90;6.00;;;;;;;7.07;49.77;99322.84;7684820;32;40006;-73
2022/04/19 03:21:28;;;;;;;8.32;5.68;;;;;;;6.93;49.91;99327.91;7684844;32;37828;-72
2022/04/19 03:30:19;;;;;;;9.07;5.70;;;;;;;6.46;51.34;99327.72;7685000;32;39317;-73
2022/04/19 03:34:35;;;;;;;8.60;5.55;;;;;;;6.49;51.33;99327.22;7684882;32;40015;-73
2022/04/19 03:38:53;;;;;;;8.10;5.18;;;;;;;6.37;51.52;99327.38;7684624;32;37888;-73
2022/04/19 03:43:09;;;;;;;9.82;6.00;;;;;;;6.15;51.26;99333.62;7684574;32;37871;-73
2022/04/19 03:47:25;;;;;;;10.32;5.65;;;;;;;6.28;52.11;99320.75;7685180;32;39834;-72
2022/04/19 03:51:42;;;;;;;9.00;5.22;;;;;;;5.94;53.37;99327.16;7684321;32;39659;-73
2022/04/19 03:56:03;;;;;;;9.48;5.00;;;;;;;5.94;52.65;99319.03;7684442;32;38588;-72
2022/04/19 04:00:21;;;;;;;8.45;5.32;;;;;;;6.25;51.26;99303.16;7684495;32;37584;-73
2022/04/19 04:04:37;;;;;;;7.90;4.50;;;;;;;6.23;50.71;99318.84;7683323;32;40469;-73
2022/04/19 04:08:53;;;;;;;5.90;4.12;;;;;;;6.30;50.57;99313.22;7684266;32;40645;-73
2022/04/19 04:13:09;;;;;;;11.48;5.00;;;;;;;6.08;51.17;99324.91;7684080;32;37552;-73
2022/04/19 04:17:25;;;;;;;8.90;4.93;;;;;;;6.01;50.90;99330.50;7684211;32;37221;-75
2022/04/19 04:21:41;;;;;;;7.75;4.20;;;;;;;5.93;51.17;99330.94;7683514;32;40091;-73
2022/04/19 04:25:57;;;;;;;9.70;5.15;;;;;;;6.19;50.31;99328.53;7683881;32;40233;-71
2022/04/19 04:30:13;;;;;;;10.50;5.37;;;;;;;5.83;52.40;99336.22;7683888;32;38355;-73
2022/04/19 04:34:29;;;;;;;12.80;5.03;;;;;;;5.93;52.06;99347.16;7683859;32;36946;-72
2022/04/19 04:38:45;;;;;;;10.13;5.72;;;;;;;6.15;51.32;99341.75;7683808;32;39468;-72
2022/04/19 04:43:02;;;;;;;12.23;5.75;;;;;;;5.61;53.56;99347.84;7683593;32;39938;-72
2022/04/19 04:51:52;;;;;;;11.82;5.95;;;;;;;5.90;52.91;99346.81;7683635;32;37375;-72
2022/04/19 04:56:08;;;;;;;12.00;6.20;;;;;;;5.98;53.36;99349.94;7683413;32;39319;-73
2022/04/19 05:00:25;;;;;;;9.57;5.37;;;;;;;6.01;52.88;99349.44;7683187;32;40730;-72
2022/04/19 05:04:42;;;;;;;14.32;6.43;;;;;;;5.95;52.88;99346.91;7682793;32;37956;-73
2022/04/19 05:08:57;;;;;;;9.45;5.37;;;;;;;6.37;51.68;99346.34;7683092;32;37401;-71
2022/04/19 05:13:13;;;;;;;7.85;5.43;;;;;;;6.12;52.80;99350.41;7682918;32;40125;-71
2022/04/19 05:17:29;;;;;;;10.10;6.10;;;;;;;5.97;53.44;99344.81;7684356;32;39908;-71
2022/04/19 05:21:45;;;;;;;9.75;5.93;;;;;;;6.44;52.28;99338.00;7686223;32;38516;-72
2022/04/19 05:26:02;;;;;;;11.50;6.40;;;;;;;6.25;53.23;99338.34;7686219;32;37862;-73
2022/04/19 05:30:18;;;;;;;12.70;6.90;;;;;;;5.92;54.67;99339.31;7685740;32;40159;-73
2022/04/19 05:34:34;;;;;;;12.25;6.90;;;;;;;5.65;56.60;99348.97;7685725;32;39938;-72
2022/04/19 05:38:52;;;;;;;10.48;7.00;;;;;;;5.93;55.46;99341.75;7685864;32;37875;-72
2022/04/19 05:43:08;;;;;;;12.20;6.70;;;;;;;6.43;54.40;99341.78;7684856;32;36932;-73
2022/04/19 05:47:25;;;;;;;9.13;6.10;;;;;;;6.47;55.55;99334.75;7685845;32;40114;-73
2022/04/19 05:51:42;;;;;;;10.80;6.12;;;;;;;7.12;53.62;99336.44;7685919;32;39949;-73
2022/04/19 05:55:58;;;;;;;13.48;6.00;;;;;;;7.45;52.71;99329.06;7685576;32;37917;-71
2022/04/19 06:00:14;;;;;;;8.70;5.50;;;;;;;7.87;52.41;99335.50;7685871;32;37203;-74
2022/04/19 06:09:05;;;;;;;11.30;6.00;;;;;;;7.98;50.29;99322.78;7681983;32;40712;-72
2022/04/19 06:13:21;;;;;;;12.00;6.18;;;;;;;8.37;50.06;99322.34;7663467;32;37610;-73
2022/04/19 06:17:38;;;;;;;12.45;6.15;;;;;;;8.46;51.40;99321.56;7683683;32;36906;-74
2022/04/19 06:21:55;;;;;;;9.45;5.57;;;;;;;9.03;49.68;99316.97;7672839;32;39378;-72
2022/04/19 06:26:11;;;;;;;11.63;5.87;;;;;;;8.56;49.99;99323.50;7685126;32;39965;-73
2022/04/19 06:30:27;;;;;;;9.18;5.03;;;;;;;8.95;48.86;99325.69;7683754;32;38459;-73
2022/04/19 06:34:43;;;;;;;9.77;5.00;;;;;;;8.77;48.67;99331.66;7674739;32;37089;-73
2022/04/19 06:38:59;;;;;;;9.05;4.68;;;;;;;9.19;46.71;99323.25;7684655;32;40323;-74
2022/04/19 06:43:15;;;;;;;9.23;4.65;;;;;;;9.53;44.97;99316.34;7684740;32;39699;-73
2022/04/19 06:47:31;;;;;;;7.60;4.60;;;;;;;9.76;43.54;99323.91;7684371;32;37641;-74
2022/04/19 06:51:48;;;;;;;9.65;4.47;;;;;;;10.11;42.57;99322.13;7684123;32;37038;-74
2022/04/19 06:56:06;;;;;;;8.10;4.37;;;;;;;10.21;42.49;99325.88;7684020;32;40264;-73
2022/04/19 07:00:22;;;;;;;9.05;4.50;;;;;;;10.52;41.09;99319.19;7683901;32;40840;-72
2022/04/19 07:04:39;;;;;;;8.27;4.22;;;;;;;10.69;40.75;99318.81;7684251;32;37940;-73
2022/04/19 07:08:55;;;;;;;8.23;4.80;;;;;;;10.85;40.38;99311.31;7684396;32;37180;-73
2022/04/19 07:13:11;;;;;;;8.55;4.57;;;;;;;10.77;40.87;99317.38;7684295;32;39862;-74
2022/04/19 07:17:27;;;;;;;8.95;4.55;;;;;;;10.96;40.09;99316.69;7672817;32;40884;-73
2022/04/19 07:26:37;;;;;;;7.22;4.20;;;;;;;11.31;39.29;99312.81;7671310;32;37177;-73
2022/04/19 07:30:53;;;;;;;9.40;4.35;;;;;;;11.58;38.87;99314.97;7672227;32;39280;-74
2022/04/19 07:35:10;;;;;;;6.68;4.03;;;;;;;11.75;37.38;99313.72;7670890;32;39920;-74
2022/04/19 07:39:26;;;;;;;8.20;4.30;;;;;;;11.70;38.33;99319.25;7669131;32;37816;-74
2022/04/19 07:43:44;;;;;;;9.35;4.43;;;;;;;11.95;37.85;99307.22;7669265;32;37144;-73
2022/04/19 07:48:00;;;;;;;10.05;4.95;;;;;;;12.33;36.32;99302.63;7670143;32;39409;-74
2022/04/19 07:52:16;;;;;;;9.65;4.57;;;;;;;12.38;37.06;99296.25;7669300;32;40781;-73
2022/04/19 07:56:32;;;;;;;6.12;4.40;;;;;;;12.57;36.00;99293.50;7678367;32;37912;-75
2022/04/19 08:00:48;;;;;;;7.03;4.40;;;;;;;12.50;35.28;99293.06;7683557;32;35751;-76
2022/04/19 08:05:05;;;;;;;7.65;4.57;;;;;;;12.83;36.60;99302.13;7676126;32;39290;-76
2022/04/19 08:09:21;;;;;;;8.32;4.85;;;;;;;12.94;34.52;99283.63;7683765;32;40611;-76
2022/04/19 08:13:37;;;;;;;8.02;4.60;;;;;;;12.78;34.51;99286.59;7684261;32;38539;-75
2022/04/19 08:17:53;;;;;;;8.68;5.28;;;;;;;13.19;34.61;99292.47;7684172;32;37198;-76
2022/04/19 08:22:09;;;;;;;7.68;4.62;;;;;;;13.32;31.79;99289.78;7683933;32;39341;-75
2022/04/19 08:26:25;;;;;;;11.18;4.95;;;;;;;13.00;31.38;99298.00;7684221;32;40720;-75
2022/04/19 08:30:41;;;;;;;7.57;4.70;;;;;;;13.36;32.13;99292.75;7683982;32;37860;-75
2022/04/19 08:34:58;;;;;;;9.85;4.82;;;;;;;13.39;32.15;99283.94;7681171;32;37038;-76
2022/04/19 08:39:14;;;;;;;8.95;4.30;;;;;;;13.70;32.77;99278.66;7683218;32;39391;-75
2022/04/19 08:43:30;;;;;;;7.12;4.20;;;;;;;14.36;32.13;99272.06;7683543;32;40049;-76
2022/04/19 08:47:47;;;;;;;8.40;4.90;;;;;;;13.89;29.42;99275.00;7683201;32;37969;-75
2022/04/19 08:52:04;;;;;;;9.27;4.50;;;;;;;13.87;31.02;99272.56;7683218;32;37136;-74
2022/04/19 09:00:56;;;;;;;8.98;4.50;;;;;;;14.11;30.58;99260.56;7682205;32;39880;-75
2022/04/19 09:05:14;;;;;;;8.05;4.30;;;;;;;13.86;31.36;99259.97;7682922;32;38660;-77
2022/04/19 09:09:34;;;;;;;7.80;4.60;;;;;;;13.89;29.80;99264.84;7683168;32;38058;-76
2022/04/19 09:14:05;;;;;;;9.02;4.70;;;;;;;13.79;31.72;99256.84;7683107;32;40031;-76
2022/04/19 09:18:30;;;;;;;11.12;4.90;;;;;;;13.99;29.23;99261.06;7682814;32;40778;-75
2022/04/19 09:22:50;;;;;;;11.10;4.85;;;;;;;14.17;28.42;99253.03;7683179;32;36240;-75
2022/04/19 09:27:06;;;;;;;5.87;4.37;;;;;;;14.13;31.08;99263.00;7682437;32;38107;-75
2022/04/19 09:31:31;;;;;;;12.85;4.70;;;;;;;13.81;29.94;99259.28;7682592;32;39488;-76
2022/04/19 09:35:53;;;;;;;8.32;4.60;;;;;;;14.18;30.23;99263.69;7682257;32;40642;-76
2022/04/19 09:40:09;;;;;;;8.07;4.60;;;;;;;14.13;29.34;99255.56;7681062;32;37693;-75
2022/04/19 09:44:25;;;;;;;11.43;4.75;;;;;;;13.12;31.71;99266.34;7682255;32;37059;-76
2022/04/19 09:48:43;;;;;;;7.72;4.70;;;;;;;12.79;32.12;99271.00;7682117;32;40054;-75
2022/04/19 09:52:59;;;;;;;8.60;4.72;;;;;;;12.60;32.56;99268.28;7679280;32;40047;-76
2022/04/19 09:57:15;;;;;;;10.43;4.93;;;;;;;12.44;31.95;99275.94;7667153;32;38433;-77
2022/04/19 10:10:42;;;;;;;9.05;4.87;;;;;;;11.98;33.00;99279.31;7672838;32;40804;-76
2022/04/19 10:14:59;;;;;;;6.57;4.28;;;;;;;12.25;32.18;99275.13;7675397;32;37910;-76
2022/04/19 10:19:16;;;;;;;6.40;3.95;;;;;;;12.52;32.70;99266.22;7684562;32;37200;-74
2022/04/19 10:23:40;;;;;;;11.18;4.55;;;;;;;13.07;30.56;99269.16;7684300;32;39327;-74
2022/04/19 10:28:06;;;;;;;14.87;5.00;;;;;;;13.26;31.45;99263.63;7681698;32;40726;-76
2022/04/19 10:32:33;;;;;;;6.43;4.40;;;;;;;13.22;31.59;99270.00;7672094;32;37894;-76
2022/04/19 10:36:54;;;;;;;6.85;4.20;;;;;;;12.89;32.56;99264.56;7672588;32;37090;-76
2022/04/19 10:41:10;;;;;;;8.27;4.10;;;;;;;13.73;31.46;99262.72;7671593;32;39983;-75
2022/04/19 10:45:28;;;;;;;8.70;4.10;;;;;;;13.05;31.42;99268.63;7669335;32;40731;-75
2022/04/19 10:49:55;;;;;;;7.43;4.05;;;;;;;13.25;31.39;99266.66;7672225;32;36862;-77
2022/04/19 10:54:12;;;;;;;6.55;3.78;;;;;;;13.51;31.21;99265.06;7671750;32;38034;-76
2022/04/19 10:58:48;;;;;;;7.20;4.10;;;;;;;12.89;33.00;99281.78;7671614;32;37446;-75
2022/04/19 11:03:21;;;;;;;5.12;3.65;;;;;;;13.46;32.33;99278.84;7672693;32;40036;-76
2022/04/19 11:07:44;;;;;;;6.25;4.20;;;;;;;13.12;32.30;99290.13;7670687;32;37794;-76
2022/04/19 11:12:12;;;;;;;6.53;3.92;;;;;;;13.00;32.23;99296.09;7671976;32;37114;-76
2022/04/19 11:16:37;;;;;;;7.45;4.30;;;;;;;12.44;33.31;99302.47;7671818;32;40117;-76
2022/04/19 11:21:05;;;;;;;7.03;4.70;;;;;;;12.20;33.41;99297.88;7672052;32;40101;-75
2022/04/19 11:25:56;;;;;;;16.05;5.10;;;;;;;12.01;37.29;99309.59;7670913;32;38492;-75
2022/04/19 11:30:13;;;;;;;9.00;4.53;;;;;;;11.55;38.41;99323.75;7621609;32;37999;-76
2022/04/19 11:34:29;;;;;;;8.65;4.78;;;;;;;10.77;38.38;99328.28;7671262;32;39532;-77
2022/04/19 11:38:48;;;;;;;5.70;4.50;;;;;;;11.04;38.29;99322.34;7684642;32;40424;-75
2022/04/19 11:47:49;;;;;;;8.10;4.15;;;;;;;11.54;36.46;99307.66;7684769;32;37816;-76
2022/04/19 11:52:11;;;;;;;5.20;3.65;;;;;;;11.57;34.04;99307.91;7683630;32;39063;-76
2022/04/19 11:56:27;;;;;;;4.53;3.37;;;;;;;11.95;33.11;99302.56;7683602;32;40543;-75
2022/04/19 12:00:54;;;;;;;6.62;3.60;;;;;;;12.44;34.31;99305.19;7683273;32;37783;-76
2022/04/19 12:05:25;;;;;;;6.07;3.30;;;;;;;13.04;31.34;99301.75;7680724;32;37280;-76
2022/04/19 12:09:42;;;;;;;6.82;3.78;;;;;;;13.09;30.97;99291.56;7670367;32;41801;-76
2022/04/19 12:13:58;;;;;;;5.50;3.72;;;;;;;12.99;30.89;99289.00;7671669;32;39868;-78
2022/04/19 12:18:30;;;;;;;5.25;3.62;;;;;;;13.01;29.21;99281.28;7669662;32;38593;-76
2022/04/19 12:22:49;;;;;;;6.50;3.45;;;;;;;13.60;30.31;99278.06;7671094;32;37377;-76
2022/04/19 12:27:07;;;;;;;5.75;3.55;;;;;;;13.85;28.96;99280.28;7682521;32;39131;-76
2022/04/19 12:31:34;;;;;;;5.87;3.70;;;;;;;14.42;28.72;99271.63;7683879;32;40736;-76
2022/04/19 12:35:54;;;;;;;7.30;4.22;;;;;;;14.76;29.77;99264.00;7683197;32;37863;-78
2022/04/19 12:40:11;;;;;;;8.80;4.43;;;;;;;15.13;29.14;99267.47;7683437;32;37019;-76
2022/04/19 12:44:27;;;;;;;6.87;4.00;;;;;;;15.42;30.91;99271.63;7683482;32;40115;-77
2022/04/19 12:48:56;;;;;;;6.75;3.60;;;;;;;16.53;27.45;99257.62;7681555;32;39765;-76
2022/04/19 12:53:22;;;;;;;9.10;4.32;;;;;;;17.05;25.04;99256.78;7683525;32;37957;-76
2022/04/19 12:57:42;;;;;;;8.30;3.83;;;;;;;16.79;25.52;99254.84;7679973;32;37775;-76
2022/04/19 13:01:58;;;;;;;6.95;4.12;;;;;;;17.37;25.40;99258.12;7674350;32;39294;-75
2022/04/19 13:15:24;;;;;;;8.80;3.83;;;;;;;16.80;27.41;99261.16;7656567;32;36827;-75
2022/04/19 13:19:43;;;;;;;4.68;3.12;;;;;;;17.31;26.84;99250.38;7655839;32;40178;-75
2022/04/19 13:23:59;;;;;;;7.22;3.47;;;;;;;17.43;26.23;99245.78;7656483;32;40928;-74
2022/04/19 13:28:15;;;;;;;6.53;3.70;;;;;;;18.50;24.52;99242.06;7655503;32;37998;-74
2022/04/19 13:32:31;;;;;;;4.60;3.03;;;;;;;18.03;25.57;99251.34;7659329;32;36834;-74
2022/04/19 13:36:48;;;;;;;7.40;3.20;;;;;;;17.46;28.17;99266.38;7682141;32;39868;-76
2022/04/19 13:41:04;;;;;;;5.80;3.25;;;;;;;16.65;30.06;99268.00;7685224;32;39852;-75
2022/04/19 13:45:20;;;;;;;6.57;3.67;;;;;;;15.29;31.32;99270.59;7685774;32;37822;-74
2022/04/19 13:49:36;;;;;;;6.60;3.95;;;;;;;15.19;30.95;99267.00;7685388;32;37369;-75
2022/04/19 13:53:52;;;;;;;5.72;3.62;;;;;;;15.23;31.56;99271.84;7684790;32;39432;-76
2022/04/19 13:58:10;;;;;;;4.90;3.62;;;;;;;14.78;32.16;99278.19;7685350;32;40001;-76
2022/04/19 14:02:31;;;;;;;6.78;3.92;;;;;;;13.50;33.83;99279.91;7685188;32;37672;-76
2022/04/19 14:06:49;;;;;;;6.55;4.15;;;;;;;13.41;34.34;99281.69;7680804;32;37760;-74
2022/04/19 14:11:06;;;;;;;4.72;3.25;;;;;;;13.34;33.94;99281.28;7671820;32;39952;-74
2022/04/19 14:15:22;;;;;;;8.65;4.37;;;;;;;13.25;34.23;99288.56;7672921;32;40678;-75
2022/04/19 14:19:39;;;;;;;6.72;3.70;;;;;;;13.49;34.46;99286.47;7660400;32;38627;-77
2022/04/19 14:23:55;;;;;;;4.97;3.72;;;;;;;13.38;33.98;99281.50;7645652;32;38142;-73
2022/04/19 14:28:11;;;;;;;7.18;4.32;;;;;;;13.36;34.04;99284.53;7658968;32;40728;-73
2022/04/19 14:37:02;;;;;;;5.93;4.00;;;;;;;12.91;36.08;99292.41;7680601;32;38064;-73
2022/04/19 14:41:21;;;;;;;6.70;4.25;;;;;;;13.32;35.79;99289.00;7659891;32;37765;-76
2022/04/19 14:45:45;;;;;;;6.28;4.10;;;;;;;13.58;34.78;99281.09;7659066;32;40026;-77
2022/04/19 14:50:01;;;;;;;6.43;4.03;;;;;;;13.65;34.09;99286.19;7672781;32;39829;-76
2022/04/19 14:54:17;;;;;;;8.48;3.47;;;;;;;13.90;34.47;99285.66;7685288;32;37970;-77
2022/04/19 14:58:34;;;;;;;14.02;6.65;;;;;;;13.89;34.38;99284.03;7672716;32;36993;-76
2022/04/19 15:02:50;;;;;;;26.62;13.68;;;;;;;13.73;35.09;99282.72;7684619;32;40536;-75
2022/04/19 15:07:07;;;;;;;13.27;7.07;;;;;;;13.42;35.74;99298.91;7684654;32;39605;-74
2022/04/19 15:11:23;;;;;;;8.02;4.82;;;;;;;13.31;36.19;99285.44;7684426;32;38118;-76
2022/04/19 15:15:41;;;;;;;9.27;5.12;;;;;;;13.39;35.80;99294.88;7684673;32;39558;-76
2022/04/19 15:19:58;;;;;;;5.30;3.70;;;;;;;13.21;35.76;99298.47;7684864;32;40190;-78
2022/04/19 15:24:15;;;;;;;7.37;4.12;;;;;;;12.86;37.90;99304.25;7684553;32;40740;-77
2022/04/19 15:28:31;;;;;;;13.93;5.87;;;;;;;12.84;37.71;99300.19;7684655;32;38025;-75
2022/04/19 15:32:47;;;;;;;9.13;5.28;;;;;;;13.20;37.60;99294.13;7684285;32;37148;-75
2022/04/19 15:37:04;;;;;;;7.47;4.20;;;;;;;13.70;35.79;99302.50;7684748;32;39992;-79
2022/04/19 15:41:20;;;;;;;10.23;4.55;;;;;;;13.34;35.35;99303.19;7684487;32;40045;-76
2022/04/19 15:45:37;;;;;;;9.20;4.65;;;;;;;12.91;37.10;99306.09;7684423;32;37802;-77
2022/04/19 15:49:55;;;;;;;8.05;4.37;;;;;;;12.94;37.69;99306.31;7684709;32;37284;-77
2022/04/19 15:54:12;;;;;;;7.35;3.67;;;;;;;13.12;37.19;99312.03;7684241;32;40026;-78
2022/04/19 15:58:28;;;;;;;5.57;4.15;;;;;;;13.21;37.36;99314.87;7679573;32;40020;-76
2022/04/19 16:02:44;;;;;;;5.97;4.12;;;;;;;13.10;37.55;99315.06;7670874;32;37527;-76
2022/04/19 16:07:01;;;;;;;8.95;3.85;;;;;;;12.80;38.20;99321.88;7671644;32;37329;-77
2022/04/19 16:11:17;;;;;;;7.35;4.10;;;;;;;12.74;38.60;99332.06;7684437;32;39096;-77
2022/04/19 16:15:34;;;;;;;7.53;4.65;;;;;;;12.50;39.60;99334.88;7683818;32;39957;-77
2022/04/19 16:24:25;;;;;;;7.37;3.97;;;;;;;12.38;41.00;99338.06;7683948;32;38247;-78
2022/04/19 16:28:42;;;;;;;6.40;4.07;;;;;;;12.11;42.25;99348.81;7683964;32;39496;-77
2022/04/19 16:32:58;;;;;;;7.22;4.28;;;;;;;12.38;41.57;99338.06;7680517;32;40867;-76
2022/04/19 16:37:14;;;;;;;6.35;4.25;;;;;;;11.65;43.22;99337.28;7666711;32;37926;-77
2022/04/19 16:41:30;;;;;;;8.07;4.80;;;;;;;11.62;43.03;99348.81;7657389;32;38056;-76
2022/04/19 16:45:47;;;;;;;8.80;5.05;;;;;;;11.21;44.29;99349.22;7658792;32;40113;-77
2022/04/19 16:50:04;;;;;;;7.20;4.93;;;;;;;10.77;45.69;99369.19;7657425;32;40001;-75
2022/04/19 16:54:21;;;;;;;7.62;4.65;;;;;;;10.67;45.86;99364.59;7656814;32;37846;-76
2022/04/19 16:58:37;;;;;;;6.85;4.75;;;;;;;10.55;46.51;99372.31;7681760;32;37632;-75
2022/04/19 17:03:56;;;;;;;5.93;4.35;;;;;;;10.81;46.02;99367.50;7683236;32;39865;-77
2022/04/19 17:07:30;;;;;;;6.78;3.97;;;;;;;10.84;46.00;99361.50;7682448;32;40740;-75
2022/04/19 17:11:47;;;;;;;5.47;4.00;;;;;;;11.21;44.73;99360.13;7684115;32;38769;-77
2022/04/19 17:16:03;;;;;;;9.00;4.80;;;;;;;10.69;46.07;99358.88;7685888;32;36878;-76
2022/04/19 17:20:20;;;;;;;7.12;4.00;;;;;;;10.53;46.58;99350.78;7686295;32;40039;-77
2022/04/19 17:24:36;;;;;;;6.87;4.65;;;;;;;10.49;46.74;99354.38;7685978;32;39884;-77
2022/04/19 17:28:53;;;;;;;16.40;9.40;;;;;;;10.19;47.57;99358.03;7685763;32;37852;-79
2022/04/19 17:33:08;;;;;;;29.63;15.88;;;;;;;9.76;48.85;99374.81;7685307;32;37349;-77
2022/04/19 17:37:25;;;;;;;36.92;23.42;;;;;;;9.34;49.83;99386.88;7685687;32;40037;-76
2022/04/19 17:41:41;;;;;;;15.25;7.37;;;;;;;9.55;49.24;99380.31;7684691;32;39921;-75
2022/04/19 17:45:57;;;;;;;11.07;6.50;;;;;;;9.59;48.81;99391.47;7685291;32;37618;-76
2022/04/19 17:59:22;;;;;;;9.13;6.20;;;;;;;8.93;50.85;99405.87;7659342;32;40020;-76
2022/04/19 18:03:38;;;;;;;10.57;5.70;;;;;;;9.07;50.05;99417.88;7672018;32;38584;-76
2022/04/19 18:07:55;;;;;;;5.93;4.53;;;;;;;8.98;50.05;99428.44;7685522;32;38199;-76
2022/04/19 18:12:12;;;;;;;7.55;4.22;;;;;;;8.80;50.42;99445.28;7685555;32;40047;-76
2022/04/19 18:16:32;;;;;;;6.70;4.35;;;;;;;8.97;49.95;99437.72;7685448;32;39976;-75
2022/04/19 18:20:49;;;;;;;6.65;4.65;;;;;;;8.83;50.59;99442.03;7685346;32;38864;-77
2022/04/19 18:25:09;;;;;;;7.60;4.82;;;;;;;8.73;51.85;99440.12;7684748;32;37687;-76
2022/04/19 18:29:25;;;;;;;8.32;5.32;;;;;;;8.74;52.10;99449.06;7659076;32;39136;-75
2022/04/19 18:33:41;;;;;;;9.73;6.22;;;;;;;8.80;51.95;99453.44;7668922;32;40669;-76
2022/04/19 18:37:57;;;;;;;11.57;7.00;;;;;;;8.73;51.73;99453.69;7671154;32;37555;-75
2022/04/19 18:42:14;;;;;;;11.82;6.45;;;;;;;8.38;52.35;99470.66;7671398;32;37668;-76
2022/04/19 18:46:30;;;;;;;8.88;5.03;;;;;;;8.28;51.91;99469.53;7670872;32;39377;-76
2022/04/19 18:50:48;;;;;;;6.68;4.72;;;;;;;8.50;51.00;99468.56;7670698;32;40708;-76
2022/04/19 18:55:04;;;;;;;6.07;4.80;;;;;;;8.19;52.51;99473.84;7671405;32;38767;-75
2022/04/19 18:59:20;;;;;;;7.62;4.85;;;;;;;8.21;52.52;99482.53;7671992;32;37020;-77
2022/04/19 19:03:36;;;;;;;7.65;4.72;;;;;;;8.20;52.81;99480.88;7673516;32;39982;-75
2022/04/19 19:07:53;;;;;;;8.45;4.75;;;;;;;8.28;52.77;99476.88;7671433;32;40008;-77
2022/04/19 19:12:09;;;;;;;10.05;4.90;;;;;;;8.38;52.41;99473.38;7676081;32;38603;-76
2022/04/19 19:16:25;;;;;;;10.85;5.25;;;;;;;8.28;52.95;99483.13;7685111;32;37068;-77
2022/04/19 19:20:42;;;;;;;7.20;4.82;;;;;;;8.32;52.82;99493.44;7685014;32;39417;-77
2022/04/19 19:25:02;;;;;;;11.73;5.68;;;;;;;8.47;52.55;99493.56;7684914;32;40162;-77
2022/04/19 19:29:18;;;;;;;8.73;5.12;;;;;;;8.44;52.67;99502.22;7680732;32;37890;-79
2022/04/19 19:33:35;;;;;;;7.57;5.25;;;;;;;8.23;53.00;99510.25;7670900;32;37777;-79
2022/04/19 19:37:51;;;;;;;9.40;5.97;;;;;;;8.19;53.38;99511.84;7669326;32;38990;-78
2022/04/19 19:42:07;;;;;;;11.20;5.37;;;;;;;8.08;53.87;99510.16;7669691;32;40549;-77
2022/04/19 19:46:23;;;;;;;9.05;5.95;;;;;;;7.92;54.32;99516.53;7668075;32;37734;-80
2022/04/19 19:50:40;;;;;;;9.02;6.03;;;;;;;7.93;54.23;99521.72;7669366;32;37902;-78
2022/04/19 19:54:56;;;;;;;8.07;5.85;;;;;;;7.97;54.22;99531.00;7668446;32;39360;-79
2022/04/19 19:59:17;;;;;;;9.18;5.47;;;;;;;7.70;54.83;99536.47;7669203;32;40021;-79
2022/04/19 20:03:33;;;;;;;9.27;5.70;;;;;;;7.61;55.52;99538.03;7671686;32;37758;-82
2022/04/19 20:07:50;;;;;;;9.73;6.00;;;;;;;8.03;54.15;99550.84;7669039;32;37536;-80
2022/04/19 20:12:07;;;;;;;7.85;5.37;;;;;;;7.84;54.54;99547.72;7670287;32;40032;-80
2022/04/19 20:16:30;;;;;;;7.50;5.28;;;;;;;7.84;54.18;99545.81;7668134;32;40255;-79
2022/04/19 20:20:47;;;;;;;15.40;6.35;;;;;;;7.84;53.60;99542.28;7667126;32;37903;-81
2022/04/19 20:25:04;;;;;;;9.70;5.75;;;;;;;7.71;54.27;99532.69;7668794;32;36835;-81
2022/04/19 20:29:20;;;;;;;7.87;6.05;;;;;;;7.84;53.92;99540.38;7668793;32;39035;-80
2022/04/19 20:33:37;;;;;;;9.32;5.57;;;;;;;8.05;53.10;99535.94;7671293;32;39959;-80
2022/04/19 20:37:53;;;;;;;7.62;5.62;;;;;;;7.59;54.20;99542.88;7668547;32;37866;-80
2022/04/19 20:42:09;;;;;;;7.50;5.47;;;;;;;7.49;54.10;99541.72;7667505;32;37373;-82
2022/04/19 20:50:07;;;;;;;6.65;4.95;;;;;;;7.57;53.29;99548.59;7668814;32;39883;-79
2022/04/19 20:51:01;;;;;;;8.35;5.82;;;;;;;7.24;53.99;99545.00;7668682;32;39714;-80
2022/04/19 20:55:18;;;;;;;8.13;5.32;;;;;;;6.94;55.05;99556.34;7670553;32;38374;-79
2022/04/19 20:59:45;;;;;;;8.30;5.53;;;;;;;6.88;54.29;99557.34;7668004;32;37258;-78
2022/04/19 21:04:03;;;;;;;10.07;5.93;;;;;;;7.07;53.63;99553.25;7667764;32;39153;-79
2022/04/19 21:08:19;;;;;;;10.63;6.50;;;;;;;7.22;53.27;99551.75;7667865;32;39714;-78
2022/04/19 21:12:35;;;;;;;9.57;6.15;;;;;;;7.15;53.65;99541.94;7667533;32;36393;-78
2022/04/19 21:16:53;;;;;;;9.80;6.82;;;;;;;6.87;55.03;99544.88;7667657;32;37567;-79
2022/04/19 21:21:09;;;;;;;10.73;6.10;;;;;;;6.70;56.25;99547.66;7669848;32;39319;-77
2022/04/19 21:25:26;;;;;;;9.95;6.82;;;;;;;6.55;57.11;99543.69;7667240;32;39963;-77
2022/04/19 21:30:01;;;;;;;10.57;6.97;;;;;;;6.50;57.10;99540.09;7666765;32;37800;-75